sensor_id;sensor_type;location;lat;lon;timestamp;temperature;humidity
77700;DHT22;66867;42.658;23.320;2023-03-29T00:00:00;3.0;63
77700;DHT22;66867;42.658;23.320;2023-03-29T00:01:00;3.0;63
77700;DHT22;66867;42.658;23.320;2023-03-29T00:02:00;3.0;64
77700;DHT22;66867;42.658;23.320;2023-03-29T00:03:00;3.0;64
77700;DHT22;66867;42.658;23.320;2023-03-29T00:04:00;3.0;63
77700;DHT22;66867;42.658;23.320;2023-03-29T00:05:00;3.0;63
77700;DHT22;66867;42.658;23.320;2023-03-29T00:06:00;3.0;63
77700;DHT22;66867;42.658;23.320;2023-03-29T00:07:00;2.9;63
77700;DHT22;66867;42.658;23.320;2023-03-29T00:08:00;2.9;63
77700;DHT22;66867;42.658;23.320;2023-03-29T00:09:00;3.0;63
77700;DHT22;66867;42.658;23.320;2023-03-29T00:10:01;3.0;63
77700;DHT22;66867;42.658;23.320;2023-03-29T00:11:00;2.9;63
77700;DHT22;66867;42.658;23.320;2023-03-29T00:12:00;2.8;63
77700;DHT22;66867;42.658;23.320;2023-03-29T00:13:00;2.7;64
77700;DHT22;66867;42.658;23.320;2023-03-29T00:14:00;2.7;64
77700;DHT22;66867;42.658;23.320;2023-03-29T00:15:00;2.6;64
77700;DHT22;66867;42.658;23.320;2023-03-29T00:16:00;2.6;64
77700;DHT22;66867;42.658;23.320;2023-03-29T00:17:00;2.4;64
77700;DHT22;66867;42.658;23.320;2023-03-29T00:18:00;2.6;64
77700;DHT22;66867;42.658;23.320;2023-03-29T00:19:00;2.5;64
77700;DHT22;66867;42.658;23.320;2023-03-29T00:20:00;2.4;65
77700;DHT22;66867;42.658;23.320;2023-03-29T00:21:00;2.5;65
77700;DHT22;66867;42.658;23.320;2023-03-29T00:22:01;2.4;65
77700;DHT22;66867;42.658;23.320;2023-03-29T00:23:00;2.3;65
77700;DHT22;66867;42.658;23.320;2023-03-29T00:24:00;2.4;65
77700;DHT22;66867;42.658;23.320;2023-03-29T00:25:00;2.5;64
77700;DHT22;66867;42.658;23.320;2023-03-29T00:26:00;2.4;64
77700;DHT22;66867;42.658;23.320;2023-03-29T00:27:00;2.4;64
77700;DHT22;66867;42.658;23.320;2023-03-29T00:28:00;2.5;64
77700;DHT22;66867;42.658;23.320;2023-03-29T00:29:00;2.5;64
77700;DHT22;66867;42.658;23.320;2023-03-29T00:30:00;2.6;64
77700;DHT22;66867;42.658;23.320;2023-03-29T00:31:04;2.6;64
77700;DHT22;66867;42.658;23.320;2023-03-29T00:32:00;2.5;64
77700;DHT22;66867;42.658;23.320;2023-03-29T00:33:00;2.5;64
77700;DHT22;66867;42.658;23.320;2023-03-29T00:34:00;2.6;64
77700;DHT22;66867;42.658;23.320;2023-03-29T00:35:00;2.7;63
77700;DHT22;66867;42.658;23.320;2023-03-29T00:36:00;2.7;63
77700;DHT22;66867;42.658;23.320;2023-03-29T00:37:01;2.8;63
77700;DHT22;66867;42.658;23.320;2023-03-29T00:38:00;2.7;63
77700;DHT22;66867;42.658;23.320;2023-03-29T00:39:00;2.7;63
77700;DHT22;66867;42.658;23.320;2023-03-29T00:40:00;2.7;63
77700;DHT22;66867;42.658;23.320;2023-03-29T00:41:00;2.8;63
77700;DHT22;66867;42.658;23.320;2023-03-29T00:42:00;2.8;63
77700;DHT22;66867;42.658;23.320;2023-03-29T00:43:00;2.8;62
77700;DHT22;66867;42.658;23.320;2023-03-29T00:44:01;2.8;62
77700;DHT22;66867;42.658;23.320;2023-03-29T00:46:00;2.8;62
77700;DHT22;66867;42.658;23.320;2023-03-29T00:47:00;2.7;62
77700;DHT22;66867;42.658;23.320;2023-03-29T00:48:01;2.6;62
77700;DHT22;66867;42.658;23.320;2023-03-29T00:49:01;2.6;62
77700;DHT22;66867;42.658;23.320;2023-03-29T00:50:06;2.6;62
77700;DHT22;66867;42.658;23.320;2023-03-29T00:51:02;2.6;62
77700;DHT22;66867;42.658;23.320;2023-03-29T00:52:00;2.5;62
77700;DHT22;66867;42.658;23.320;2023-03-29T00:53:08;2.4;62
77700;DHT22;66867;42.658;23.320;2023-03-29T00:54:00;2.5;62
77700;DHT22;66867;42.658;23.320;2023-03-29T00:55:02;2.5;63
77700;DHT22;66867;42.658;23.320;2023-03-29T00:57:00;2.6;62
77700;DHT22;66867;42.658;23.320;2023-03-29T00:58:00;2.6;62
77700;DHT22;66867;42.658;23.320;2023-03-29T01:00:00;2.7;62
77700;DHT22;66867;42.658;23.320;2023-03-29T01:01:02;2.6;62
77700;DHT22;66867;42.658;23.320;2023-03-29T01:02:01;2.5;62
77700;DHT22;66867;42.658;23.320;2023-03-29T01:03:00;2.5;62
77700;DHT22;66867;42.658;23.320;2023-03-29T01:04:01;2.5;62
77700;DHT22;66867;42.658;23.320;2023-03-29T01:05:01;2.6;62
77700;DHT22;66867;42.658;23.320;2023-03-29T01:06:02;2.6;62
77700;DHT22;66867;42.658;23.320;2023-03-29T01:07:02;2.6;62
77700;DHT22;66867;42.658;23.320;2023-03-29T01:08:02;2.6;62
77700;DHT22;66867;42.658;23.320;2023-03-29T01:09:01;2.5;63
77700;DHT22;66867;42.658;23.320;2023-03-29T01:10:05;2.4;63
77700;DHT22;66867;42.658;23.320;2023-03-29T01:11:03;2.4;63
77700;DHT22;66867;42.658;23.320;2023-03-29T01:12:02;2.5;63
77700;DHT22;66867;42.658;23.320;2023-03-29T01:13:03;2.5;63
77700;DHT22;66867;42.658;23.320;2023-03-29T01:14:01;2.6;63
77700;DHT22;66867;42.658;23.320;2023-03-29T01:15:01;2.5;63
77700;DHT22;66867;42.658;23.320;2023-03-29T01:16:00;2.4;63
77700;DHT22;66867;42.658;23.320;2023-03-29T01:17:00;2.5;63
77700;DHT22;66867;42.658;23.320;2023-03-29T01:18:00;2.5;63
77700;DHT22;66867;42.658;23.320;2023-03-29T01:19:00;2.4;63
77700;DHT22;66867;42.658;23.320;2023-03-29T01:20:02;2.4;63
77700;DHT22;66867;42.658;23.320;2023-03-29T01:28:03;2.3;64
77700;DHT22;66867;42.658;23.320;2023-03-29T01:30:00;2.4;64
77700;DHT22;66867;42.658;23.320;2023-03-29T01:32:02;2.2;64
77700;DHT22;66867;42.658;23.320;2023-03-29T01:33:01;2.2;64
77700;DHT22;66867;42.658;23.320;2023-03-29T01:34:01;2.1;64
77700;DHT22;66867;42.658;23.320;2023-03-29T01:35:01;2.2;64
77700;DHT22;66867;42.658;23.320;2023-03-29T01:36:06;2.1;64
77700;DHT22;66867;42.658;23.320;2023-03-29T01:38:02;2.1;64
77700;DHT22;66867;42.658;23.320;2023-03-29T01:39:01;2.1;64
77700;DHT22;66867;42.658;23.320;2023-03-29T01:40:00;2.1;64
77700;DHT22;66867;42.658;23.320;2023-03-29T01:41:00;2.1;64
77700;DHT22;66867;42.658;23.320;2023-03-29T01:44:02;2.1;64
77700;DHT22;66867;42.658;23.320;2023-03-29T01:47:07;2.1;64
77700;DHT22;66867;42.658;23.320;2023-03-29T01:49:02;2.2;64
77700;DHT22;66867;42.658;23.320;2023-03-29T01:52:02;2.2;64
77700;DHT22;66867;42.658;23.320;2023-03-29T01:53:03;2.2;63
77700;DHT22;66867;42.658;23.320;2023-03-29T01:54:03;2.2;63
77700;DHT22;66867;42.658;23.320;2023-03-29T01:55:03;2.1;63
77700;DHT22;66867;42.658;23.320;2023-03-29T01:56:02;2.2;63
77700;DHT22;66867;42.658;23.320;2023-03-29T01:57:00;2.2;63
77700;DHT22;66867;42.658;23.320;2023-03-29T01:58:00;2.2;63
77700;DHT22;66867;42.658;23.320;2023-03-29T01:59:00;2.3;63
77700;DHT22;66867;42.658;23.320;2023-03-29T02:00:00;2.3;63
77700;DHT22;66867;42.658;23.320;2023-03-29T02:01:01;2.3;63
77700;DHT22;66867;42.658;23.320;2023-03-29T02:02:01;2.2;63
77700;DHT22;66867;42.658;23.320;2023-03-29T02:03:01;2.2;63
77700;DHT22;66867;42.658;23.320;2023-03-29T02:04:01;2.2;63
77700;DHT22;66867;42.658;23.320;2023-03-29T02:05:00;2.1;63
77700;DHT22;66867;42.658;23.320;2023-03-29T02:06:00;2.2;63
77700;DHT22;66867;42.658;23.320;2023-03-29T02:07:00;2.2;63
77700;DHT22;66867;42.658;23.320;2023-03-29T02:08:00;2.3;63
77700;DHT22;66867;42.658;23.320;2023-03-29T02:09:00;2.3;63
77700;DHT22;66867;42.658;23.320;2023-03-29T02:10:00;2.2;63
77700;DHT22;66867;42.658;23.320;2023-03-29T02:11:00;2.2;62
77700;DHT22;66867;42.658;23.320;2023-03-29T02:12:00;2.2;63
77700;DHT22;66867;42.658;23.320;2023-03-29T02:13:00;2.2;63
77700;DHT22;66867;42.658;23.320;2023-03-29T02:14:00;2.1;63
77700;DHT22;66867;42.658;23.320;2023-03-29T02:15:00;2.2;63
77700;DHT22;66867;42.658;23.320;2023-03-29T02:16:02;2.1;63
77700;DHT22;66867;42.658;23.320;2023-03-29T02:18:00;2.1;63
77700;DHT22;66867;42.658;23.320;2023-03-29T02:19:00;2.3;63
77700;DHT22;66867;42.658;23.320;2023-03-29T02:20:02;2.1;63
77700;DHT22;66867;42.658;23.320;2023-03-29T02:21:00;2.1;63
77700;DHT22;66867;42.658;23.320;2023-03-29T02:22:03;2.1;62
77700;DHT22;66867;42.658;23.320;2023-03-29T02:23:01;2.2;62
77700;DHT22;66867;42.658;23.320;2023-03-29T02:24:00;2.2;62
77700;DHT22;66867;42.658;23.320;2023-03-29T02:25:00;2.1;62
77700;DHT22;66867;42.658;23.320;2023-03-29T02:26:01;2.1;62
77700;DHT22;66867;42.658;23.320;2023-03-29T02:27:00;2.2;62
77700;DHT22;66867;42.658;23.320;2023-03-29T02:28:00;2.1;62
77700;DHT22;66867;42.658;23.320;2023-03-29T02:29:00;2.1;62
77700;DHT22;66867;42.658;23.320;2023-03-29T02:30:00;2.2;62
77700;DHT22;66867;42.658;23.320;2023-03-29T02:31:01;2.1;62
77700;DHT22;66867;42.658;23.320;2023-03-29T02:32:02;2.2;62
77700;DHT22;66867;42.658;23.320;2023-03-29T02:33:03;2.2;62
77700;DHT22;66867;42.658;23.320;2023-03-29T02:34:03;2.2;62
77700;DHT22;66867;42.658;23.320;2023-03-29T02:35:02;2.2;62
77700;DHT22;66867;42.658;23.320;2023-03-29T02:36:06;2.2;62
77700;DHT22;66867;42.658;23.320;2023-03-29T02:37:02;2.1;62
77700;DHT22;66867;42.658;23.320;2023-03-29T02:38:02;2.2;62
77700;DHT22;66867;42.658;23.320;2023-03-29T02:39:00;2.3;62
77700;DHT22;66867;42.658;23.320;2023-03-29T02:40:00;2.2;61
77700;DHT22;66867;42.658;23.320;2023-03-29T02:41:00;2.2;62
77700;DHT22;66867;42.658;23.320;2023-03-29T02:42:00;2.2;62
77700;DHT22;66867;42.658;23.320;2023-03-29T02:43:00;2.2;62
77700;DHT22;66867;42.658;23.320;2023-03-29T02:44:00;2.3;62
77700;DHT22;66867;42.658;23.320;2023-03-29T02:45:00;2.3;61
77700;DHT22;66867;42.658;23.320;2023-03-29T02:46:00;2.2;61
77700;DHT22;66867;42.658;23.320;2023-03-29T02:47:12;2.3;61
77700;DHT22;66867;42.658;23.320;2023-03-29T02:48:01;2.3;61
77700;DHT22;66867;42.658;23.320;2023-03-29T02:49:00;2.3;61
77700;DHT22;66867;42.658;23.320;2023-03-29T02:50:00;2.3;61
77700;DHT22;66867;42.658;23.320;2023-03-29T02:51:00;2.2;62
77700;DHT22;66867;42.658;23.320;2023-03-29T02:52:02;2.2;62
77700;DHT22;66867;42.658;23.320;2023-03-29T02:53:00;2.2;62
77700;DHT22;66867;42.658;23.320;2023-03-29T02:55:00;2.2;62
77700;DHT22;66867;42.658;23.320;2023-03-29T02:56:00;2.1;62
77700;DHT22;66867;42.658;23.320;2023-03-29T02:57:02;2.1;62
77700;DHT22;66867;42.658;23.320;2023-03-29T02:58:01;2.1;62
77700;DHT22;66867;42.658;23.320;2023-03-29T02:59:00;2.1;62
77700;DHT22;66867;42.658;23.320;2023-03-29T03:00:00;1.9;63
77700;DHT22;66867;42.658;23.320;2023-03-29T03:01:00;2.0;63
77700;DHT22;66867;42.658;23.320;2023-03-29T03:02:00;2.1;63
77700;DHT22;66867;42.658;23.320;2023-03-29T03:03:00;2.0;63
77700;DHT22;66867;42.658;23.320;2023-03-29T03:04:00;1.9;63
77700;DHT22;66867;42.658;23.320;2023-03-29T03:05:00;1.9;63
77700;DHT22;66867;42.658;23.320;2023-03-29T03:06:00;1.9;64
77700;DHT22;66867;42.658;23.320;2023-03-29T03:07:00;1.9;63
77700;DHT22;66867;42.658;23.320;2023-03-29T03:08:00;1.9;63
77700;DHT22;66867;42.658;23.320;2023-03-29T03:09:00;1.9;64
77700;DHT22;66867;42.658;23.320;2023-03-29T03:10:00;2.0;64
77700;DHT22;66867;42.658;23.320;2023-03-29T03:11:00;1.9;64
77700;DHT22;66867;42.658;23.320;2023-03-29T03:12:00;2.0;64
77700;DHT22;66867;42.658;23.320;2023-03-29T03:13:00;2.0;64
77700;DHT22;66867;42.658;23.320;2023-03-29T03:14:00;2.1;64
77700;DHT22;66867;42.658;23.320;2023-03-29T03:15:00;2.0;64
77700;DHT22;66867;42.658;23.320;2023-03-29T03:16:00;2.1;64
77700;DHT22;66867;42.658;23.320;2023-03-29T03:17:00;2.1;64
77700;DHT22;66867;42.658;23.320;2023-03-29T03:18:00;2.0;64
77700;DHT22;66867;42.658;23.320;2023-03-29T03:19:00;2.0;64
77700;DHT22;66867;42.658;23.320;2023-03-29T03:20:00;2.0;64
77700;DHT22;66867;42.658;23.320;2023-03-29T03:21:00;2.0;64
77700;DHT22;66867;42.658;23.320;2023-03-29T03:22:00;2.0;64
77700;DHT22;66867;42.658;23.320;2023-03-29T03:23:00;1.9;64
77700;DHT22;66867;42.658;23.320;2023-03-29T03:24:00;1.9;64
77700;DHT22;66867;42.658;23.320;2023-03-29T03:25:00;2.0;64
77700;DHT22;66867;42.658;23.320;2023-03-29T03:26:00;1.9;64
77700;DHT22;66867;42.658;23.320;2023-03-29T03:27:00;1.9;64
77700;DHT22;66867;42.658;23.320;2023-03-29T03:28:00;1.9;64
77700;DHT22;66867;42.658;23.320;2023-03-29T03:29:00;1.8;64
77700;DHT22;66867;42.658;23.320;2023-03-29T03:30:00;1.9;64
77700;DHT22;66867;42.658;23.320;2023-03-29T03:31:00;1.9;64
77700;DHT22;66867;42.658;23.320;2023-03-29T03:32:00;1.8;64
77700;DHT22;66867;42.658;23.320;2023-03-29T03:33:00;1.8;64
77700;DHT22;66867;42.658;23.320;2023-03-29T03:34:00;1.8;64
77700;DHT22;66867;42.658;23.320;2023-03-29T03:35:00;1.9;64
77700;DHT22;66867;42.658;23.320;2023-03-29T03:36:00;1.9;64
77700;DHT22;66867;42.658;23.320;2023-03-29T03:37:00;1.9;64
77700;DHT22;66867;42.658;23.320;2023-03-29T03:38:00;1.9;63
77700;DHT22;66867;42.658;23.320;2023-03-29T03:39:00;1.9;63
77700;DHT22;66867;42.658;23.320;2023-03-29T03:40:00;1.9;63
77700;DHT22;66867;42.658;23.320;2023-03-29T03:41:00;1.9;63
77700;DHT22;66867;42.658;23.320;2023-03-29T03:42:00;2.0;62
77700;DHT22;66867;42.658;23.320;2023-03-29T03:43:00;1.9;62
77700;DHT22;66867;42.658;23.320;2023-03-29T03:44:00;1.9;62
77700;DHT22;66867;42.658;23.320;2023-03-29T03:45:00;1.9;62
77700;DHT22;66867;42.658;23.320;2023-03-29T03:46:00;1.9;62
77700;DHT22;66867;42.658;23.320;2023-03-29T03:47:00;2.0;62
77700;DHT22;66867;42.658;23.320;2023-03-29T03:48:00;2.0;62
77700;DHT22;66867;42.658;23.320;2023-03-29T03:49:00;1.9;62
77700;DHT22;66867;42.658;23.320;2023-03-29T03:50:00;1.8;62
77700;DHT22;66867;42.658;23.320;2023-03-29T03:51:00;1.9;62
77700;DHT22;66867;42.658;23.320;2023-03-29T03:52:00;1.9;62
77700;DHT22;66867;42.658;23.320;2023-03-29T03:53:00;1.9;62
77700;DHT22;66867;42.658;23.320;2023-03-29T03:54:00;1.9;62
77700;DHT22;66867;42.658;23.320;2023-03-29T03:55:00;1.9;62
77700;DHT22;66867;42.658;23.320;2023-03-29T03:56:00;1.9;62
77700;DHT22;66867;42.658;23.320;2023-03-29T03:57:00;1.9;61
77700;DHT22;66867;42.658;23.320;2023-03-29T03:58:00;1.8;62
77700;DHT22;66867;42.658;23.320;2023-03-29T03:59:00;1.8;62
77700;DHT22;66867;42.658;23.320;2023-03-29T04:00:00;1.9;61
77700;DHT22;66867;42.658;23.320;2023-03-29T04:01:00;1.8;61
77700;DHT22;66867;42.658;23.320;2023-03-29T04:02:00;1.8;61
77700;DHT22;66867;42.658;23.320;2023-03-29T04:03:00;1.8;61
77700;DHT22;66867;42.658;23.320;2023-03-29T04:04:00;1.7;61
77700;DHT22;66867;42.658;23.320;2023-03-29T04:05:00;1.8;61
77700;DHT22;66867;42.658;23.320;2023-03-29T04:06:00;1.7;61
77700;DHT22;66867;42.658;23.320;2023-03-29T04:07:00;1.7;61
77700;DHT22;66867;42.658;23.320;2023-03-29T04:08:00;1.8;61
77700;DHT22;66867;42.658;23.320;2023-03-29T04:09:00;1.8;61
77700;DHT22;66867;42.658;23.320;2023-03-29T04:10:00;1.7;61
77700;DHT22;66867;42.658;23.320;2023-03-29T04:11:00;1.7;61
77700;DHT22;66867;42.658;23.320;2023-03-29T04:12:00;1.8;61
77700;DHT22;66867;42.658;23.320;2023-03-29T04:13:00;1.8;61
77700;DHT22;66867;42.658;23.320;2023-03-29T04:14:00;1.8;61
77700;DHT22;66867;42.658;23.320;2023-03-29T04:15:00;1.9;61
77700;DHT22;66867;42.658;23.320;2023-03-29T04:16:00;1.9;61
77700;DHT22;66867;42.658;23.320;2023-03-29T04:17:00;1.9;60
77700;DHT22;66867;42.658;23.320;2023-03-29T04:18:00;1.9;61
77700;DHT22;66867;42.658;23.320;2023-03-29T04:19:00;2.0;60
77700;DHT22;66867;42.658;23.320;2023-03-29T04:20:00;2.0;60
77700;DHT22;66867;42.658;23.320;2023-03-29T04:21:00;1.8;60
77700;DHT22;66867;42.658;23.320;2023-03-29T04:22:00;1.8;60
77700;DHT22;66867;42.658;23.320;2023-03-29T04:23:00;1.9;60
77700;DHT22;66867;42.658;23.320;2023-03-29T04:24:00;1.8;60
77700;DHT22;66867;42.658;23.320;2023-03-29T04:25:00;1.9;61
77700;DHT22;66867;42.658;23.320;2023-03-29T04:26:00;1.9;60
77700;DHT22;66867;42.658;23.320;2023-03-29T04:27:00;1.9;60
77700;DHT22;66867;42.658;23.320;2023-03-29T04:28:00;1.9;60
77700;DHT22;66867;42.658;23.320;2023-03-29T04:29:00;1.8;60
77700;DHT22;66867;42.658;23.320;2023-03-29T04:30:00;1.8;61
77700;DHT22;66867;42.658;23.320;2023-03-29T04:31:00;1.8;61
77700;DHT22;66867;42.658;23.320;2023-03-29T04:35:00;1.9;61
77700;DHT22;66867;42.658;23.320;2023-03-29T04:36:00;1.9;61
77700;DHT22;66867;42.658;23.320;2023-03-29T04:37:00;1.9;61
77700;DHT22;66867;42.658;23.320;2023-03-29T04:38:00;1.9;61
77700;DHT22;66867;42.658;23.320;2023-03-29T04:40:00;2.0;61
77700;DHT22;66867;42.658;23.320;2023-03-29T04:41:00;2.0;61
77700;DHT22;66867;42.658;23.320;2023-03-29T04:42:00;2.0;61
77700;DHT22;66867;42.658;23.320;2023-03-29T04:43:00;2.0;61
77700;DHT22;66867;42.658;23.320;2023-03-29T04:44:00;1.9;61
77700;DHT22;66867;42.658;23.320;2023-03-29T04:45:00;1.9;62
77700;DHT22;66867;42.658;23.320;2023-03-29T04:46:00;1.9;62
77700;DHT22;66867;42.658;23.320;2023-03-29T04:47:00;2.0;62
77700;DHT22;66867;42.658;23.320;2023-03-29T04:48:00;2.0;62
77700;DHT22;66867;42.658;23.320;2023-03-29T04:49:00;2.0;62
77700;DHT22;66867;42.658;23.320;2023-03-29T04:50:00;1.8;62
77700;DHT22;66867;42.658;23.320;2023-03-29T04:51:00;1.8;62
77700;DHT22;66867;42.658;23.320;2023-03-29T04:52:00;1.8;62
77700;DHT22;66867;42.658;23.320;2023-03-29T04:53:00;1.8;62
77700;DHT22;66867;42.658;23.320;2023-03-29T04:54:00;1.8;62
77700;DHT22;66867;42.658;23.320;2023-03-29T04:55:00;1.9;63
77700;DHT22;66867;42.658;23.320;2023-03-29T04:56:00;1.9;63
77700;DHT22;66867;42.658;23.320;2023-03-29T04:57:00;1.8;63
77700;DHT22;66867;42.658;23.320;2023-03-29T04:58:00;1.9;63
77700;DHT22;66867;42.658;23.320;2023-03-29T04:59:00;1.9;63
77700;DHT22;66867;42.658;23.320;2023-03-29T05:00:00;1.9;63
77700;DHT22;66867;42.658;23.320;2023-03-29T05:01:00;1.9;63
77700;DHT22;66867;42.658;23.320;2023-03-29T05:02:00;1.9;63
77700;DHT22;66867;42.658;23.320;2023-03-29T05:03:00;1.9;63
77700;DHT22;66867;42.658;23.320;2023-03-29T05:04:00;1.9;63
77700;DHT22;66867;42.658;23.320;2023-03-29T05:05:00;2.0;63
77700;DHT22;66867;42.658;23.320;2023-03-29T05:06:01;2.0;62
77700;DHT22;66867;42.658;23.320;2023-03-29T05:07:00;2.1;62
77700;DHT22;66867;42.658;23.320;2023-03-29T05:08:00;2.1;62
77700;DHT22;66867;42.658;23.320;2023-03-29T05:09:00;2.2;62
77700;DHT22;66867;42.658;23.320;2023-03-29T05:10:00;2.2;62
77700;DHT22;66867;42.658;23.320;2023-03-29T05:11:00;2.2;62
77700;DHT22;66867;42.658;23.320;2023-03-29T05:12:00;2.2;62
77700;DHT22;66867;42.658;23.320;2023-03-29T05:13:00;2.2;62
77700;DHT22;66867;42.658;23.320;2023-03-29T05:14:00;2.2;62
77700;DHT22;66867;42.658;23.320;2023-03-29T05:15:00;2.2;62
77700;DHT22;66867;42.658;23.320;2023-03-29T05:16:00;2.1;61
77700;DHT22;66867;42.658;23.320;2023-03-29T05:17:00;2.1;62
77700;DHT22;66867;42.658;23.320;2023-03-29T05:18:00;2.1;62
77700;DHT22;66867;42.658;23.320;2023-03-29T05:19:00;2.1;62
77700;DHT22;66867;42.658;23.320;2023-03-29T05:36:01;2.3;60
77700;DHT22;66867;42.658;23.320;2023-03-29T05:37:00;2.3;62
77700;DHT22;66867;42.658;23.320;2023-03-29T05:38:00;2.3;63
77700;DHT22;66867;42.658;23.320;2023-03-29T05:39:00;2.3;63
77700;DHT22;66867;42.658;23.320;2023-03-29T05:40:00;2.3;63
77700;DHT22;66867;42.658;23.320;2023-03-29T05:41:00;2.5;62
77700;DHT22;66867;42.658;23.320;2023-03-29T05:42:00;2.5;62
77700;DHT22;66867;42.658;23.320;2023-03-29T05:43:00;2.5;62
77700;DHT22;66867;42.658;23.320;2023-03-29T05:47:00;2.7;62
77700;DHT22;66867;42.658;23.320;2023-03-29T05:48:00;2.8;62
77700;DHT22;66867;42.658;23.320;2023-03-29T05:49:00;2.8;62
77700;DHT22;66867;42.658;23.320;2023-03-29T05:50:00;2.9;61
77700;DHT22;66867;42.658;23.320;2023-03-29T05:51:00;2.8;61
77700;DHT22;66867;42.658;23.320;2023-03-29T05:52:00;2.8;60
77700;DHT22;66867;42.658;23.320;2023-03-29T05:53:00;2.8;61
77700;DHT22;66867;42.658;23.320;2023-03-29T05:54:00;2.8;60
77700;DHT22;66867;42.658;23.320;2023-03-29T05:55:00;2.9;60
77700;DHT22;66867;42.658;23.320;2023-03-29T05:56:00;2.8;60
77700;DHT22;66867;42.658;23.320;2023-03-29T05:57:00;2.8;60
77700;DHT22;66867;42.658;23.320;2023-03-29T05:58:00;2.8;60
77700;DHT22;66867;42.658;23.320;2023-03-29T05:59:00;2.9;60
77700;DHT22;66867;42.658;23.320;2023-03-29T06:00:00;3.0;60
77700;DHT22;66867;42.658;23.320;2023-03-29T06:01:00;3.0;60
77700;DHT22;66867;42.658;23.320;2023-03-29T06:02:00;3.0;60
77700;DHT22;66867;42.658;23.320;2023-03-29T06:03:00;3.0;60
77700;DHT22;66867;42.658;23.320;2023-03-29T06:04:00;2.9;60
77700;DHT22;66867;42.658;23.320;2023-03-29T06:05:00;3.0;59
77700;DHT22;66867;42.658;23.320;2023-03-29T06:06:01;2.9;59
77700;DHT22;66867;42.658;23.320;2023-03-29T06:07:00;3.1;60
77700;DHT22;66867;42.658;23.320;2023-03-29T06:08:00;3.1;59
77700;DHT22;66867;42.658;23.320;2023-03-29T06:09:00;3.1;59
77700;DHT22;66867;42.658;23.320;2023-03-29T06:10:00;3.0;59
77700;DHT22;66867;42.658;23.320;2023-03-29T06:11:01;3.0;59
77700;DHT22;66867;42.658;23.320;2023-03-29T06:12:00;2.9;59
77700;DHT22;66867;42.658;23.320;2023-03-29T06:13:00;2.9;59
77700;DHT22;66867;42.658;23.320;2023-03-29T06:14:00;3.0;59
77700;DHT22;66867;42.658;23.320;2023-03-29T06:15:00;3.0;59
77700;DHT22;66867;42.658;23.320;2023-03-29T06:16:00;3.0;59
77700;DHT22;66867;42.658;23.320;2023-03-29T06:17:00;3.0;59
77700;DHT22;66867;42.658;23.320;2023-03-29T06:18:00;3.1;59
77700;DHT22;66867;42.658;23.320;2023-03-29T06:19:00;3.1;59
77700;DHT22;66867;42.658;23.320;2023-03-29T06:20:00;3.1;58
77700;DHT22;66867;42.658;23.320;2023-03-29T06:21:00;3.0;58
77700;DHT22;66867;42.658;23.320;2023-03-29T06:22:00;3.0;58
77700;DHT22;66867;42.658;23.320;2023-03-29T06:23:00;3.0;58
77700;DHT22;66867;42.658;23.320;2023-03-29T06:24:00;3.1;59
77700;DHT22;66867;42.658;23.320;2023-03-29T06:25:00;3.2;59
77700;DHT22;66867;42.658;23.320;2023-03-29T06:26:00;3.2;59
77700;DHT22;66867;42.658;23.320;2023-03-29T06:27:00;3.1;59
77700;DHT22;66867;42.658;23.320;2023-03-29T06:28:00;3.1;59
77700;DHT22;66867;42.658;23.320;2023-03-29T06:29:00;3.2;59
77700;DHT22;66867;42.658;23.320;2023-03-29T06:30:00;3.2;59
77700;DHT22;66867;42.658;23.320;2023-03-29T06:31:00;3.3;59
77700;DHT22;66867;42.658;23.320;2023-03-29T06:32:00;3.4;58
77700;DHT22;66867;42.658;23.320;2023-03-29T06:33:00;3.3;58
77700;DHT22;66867;42.658;23.320;2023-03-29T06:34:00;3.3;59
77700;DHT22;66867;42.658;23.320;2023-03-29T06:35:00;3.4;59
77700;DHT22;66867;42.658;23.320;2023-03-29T06:36:00;3.5;58
77700;DHT22;66867;42.658;23.320;2023-03-29T06:37:00;3.5;58
77700;DHT22;66867;42.658;23.320;2023-03-29T06:38:00;3.4;58
77700;DHT22;66867;42.658;23.320;2023-03-29T06:39:00;3.5;58
77700;DHT22;66867;42.658;23.320;2023-03-29T06:40:00;3.6;58
77700;DHT22;66867;42.658;23.320;2023-03-29T06:41:01;3.5;58
77700;DHT22;66867;42.658;23.320;2023-03-29T06:42:00;3.6;58
77700;DHT22;66867;42.658;23.320;2023-03-29T06:43:00;3.7;57
77700;DHT22;66867;42.658;23.320;2023-03-29T06:44:00;3.6;57
77700;DHT22;66867;42.658;23.320;2023-03-29T06:45:00;3.6;57
77700;DHT22;66867;42.658;23.320;2023-03-29T06:46:00;3.6;57
77700;DHT22;66867;42.658;23.320;2023-03-29T06:47:00;3.6;57
77700;DHT22;66867;42.658;23.320;2023-03-29T06:48:00;3.4;57
77700;DHT22;66867;42.658;23.320;2023-03-29T06:49:00;3.5;57
77700;DHT22;66867;42.658;23.320;2023-03-29T06:50:00;3.4;57
77700;DHT22;66867;42.658;23.320;2023-03-29T06:51:00;3.4;57
77700;DHT22;66867;42.658;23.320;2023-03-29T06:52:00;3.4;57
77700;DHT22;66867;42.658;23.320;2023-03-29T06:53:00;3.3;57
77700;DHT22;66867;42.658;23.320;2023-03-29T06:54:00;3.3;57
77700;DHT22;66867;42.658;23.320;2023-03-29T06:55:00;3.3;57
77700;DHT22;66867;42.658;23.320;2023-03-29T06:56:00;3.3;57
77700;DHT22;66867;42.658;23.320;2023-03-29T06:57:00;3.2;58
77700;DHT22;66867;42.658;23.320;2023-03-29T06:58:00;3.2;57
77700;DHT22;66867;42.658;23.320;2023-03-29T06:59:00;3.4;58
77700;DHT22;66867;42.658;23.320;2023-03-29T07:00:00;3.4;59
77700;DHT22;66867;42.658;23.320;2023-03-29T07:01:00;3.6;58
77700;DHT22;66867;42.658;23.320;2023-03-29T07:02:00;3.6;58
77700;DHT22;66867;42.658;23.320;2023-03-29T07:03:02;3.7;58
77700;DHT22;66867;42.658;23.320;2023-03-29T07:04:00;3.7;59
77700;DHT22;66867;42.658;23.320;2023-03-29T07:05:00;3.7;58
77700;DHT22;66867;42.658;23.320;2023-03-29T07:06:01;3.8;57
77700;DHT22;66867;42.658;23.320;2023-03-29T07:07:00;3.7;57
77700;DHT22;66867;42.658;23.320;2023-03-29T07:08:00;3.7;57
77700;DHT22;66867;42.658;23.320;2023-03-29T07:09:00;3.7;57
77700;DHT22;66867;42.658;23.320;2023-03-29T07:10:00;3.7;58
77700;DHT22;66867;42.658;23.320;2023-03-29T07:11:00;3.8;58
77700;DHT22;66867;42.658;23.320;2023-03-29T07:12:00;3.9;57
77700;DHT22;66867;42.658;23.320;2023-03-29T07:13:00;4.0;57
77700;DHT22;66867;42.658;23.320;2023-03-29T07:14:00;4.0;58
77700;DHT22;66867;42.658;23.320;2023-03-29T07:15:00;4.0;58
77700;DHT22;66867;42.658;23.320;2023-03-29T07:16:00;3.9;56
77700;DHT22;66867;42.658;23.320;2023-03-29T07:17:00;4.0;56
77700;DHT22;66867;42.658;23.320;2023-03-29T07:18:00;3.9;56
77700;DHT22;66867;42.658;23.320;2023-03-29T07:19:00;3.9;57
77700;DHT22;66867;42.658;23.320;2023-03-29T07:20:00;3.9;57
77700;DHT22;66867;42.658;23.320;2023-03-29T07:36:00;4.6;56
77700;DHT22;66867;42.658;23.320;2023-03-29T07:37:00;4.7;54
77700;DHT22;66867;42.658;23.320;2023-03-29T07:38:00;4.7;56
77700;DHT22;66867;42.658;23.320;2023-03-29T07:39:00;4.7;54
77700;DHT22;66867;42.658;23.320;2023-03-29T07:40:00;4.5;54
77700;DHT22;66867;42.658;23.320;2023-03-29T07:41:02;4.6;56
77700;DHT22;66867;42.658;23.320;2023-03-29T07:42:00;4.8;54
77700;DHT22;66867;42.658;23.320;2023-03-29T07:43:00;4.8;54
77700;DHT22;66867;42.658;23.320;2023-03-29T07:44:00;4.7;53